createdAt,value
2024-01-04T00:00:16.518Z,8.95
2024-01-04T00:02:45.154Z,8.96
2024-01-04T00:05:13.181Z,9.02
2024-01-04T00:07:41.233Z,9.01
2024-01-04T00:10:09.807Z,9.04
2024-01-04T00:12:38.016Z,9.07
2024-01-04T00:15:07.400Z,9.02
2024-01-04T00:17:35.410Z,9.01
2024-01-04T00:20:04.217Z,8.99
2024-01-04T00:22:32.589Z,9.03
2024-01-04T00:25:00.762Z,8.95
2024-01-04T00:27:28.874Z,8.88
2024-01-04T00:34:53.372Z,8.74
2024-01-04T00:37:23.164Z,8.78
2024-01-04T00:39:51.542Z,8.84
2024-01-04T00:42:19.535Z,8.84
2024-01-04T00:44:47.702Z,8.78
2024-01-04T00:47:15.569Z,8.78
2024-01-04T00:49:43.571Z,8.76
2024-01-04T00:52:11.731Z,8.82
2024-01-04T00:54:39.641Z,8.73
2024-01-04T00:57:09.630Z,8.80
2024-01-04T00:59:37.752Z,8.78
2024-01-04T01:02:05.985Z,8.71
2024-01-04T01:04:34.040Z,8.73
2024-01-04T01:07:01.908Z,8.78
2024-01-04T01:09:29.945Z,8.78
2024-01-04T01:11:58.142Z,8.77
2024-01-04T01:14:26.551Z,8.82
2024-01-04T01:16:54.427Z,8.83
2024-01-04T01:19:22.608Z,8.78
2024-01-04T01:21:50.618Z,8.86
2024-01-04T01:24:18.970Z,8.84
2024-01-04T01:26:47.105Z,8.81
2024-01-04T01:29:15.187Z,8.84
2024-01-04T01:31:44.129Z,8.87
2024-01-04T01:34:12.491Z,8.93
2024-01-04T01:36:43.581Z,8.97
2024-01-04T01:39:12.653Z,8.81
2024-01-04T01:41:40.816Z,8.91
2024-01-04T01:44:08.996Z,8.93
2024-01-04T01:46:37.388Z,8.95
2024-01-04T01:49:05.457Z,8.90
2024-01-04T01:51:33.535Z,8.89
2024-01-04T01:54:02.654Z,8.85
2024-01-04T01:56:32.416Z,8.79
2024-01-04T02:02:51.175Z,8.51
2024-01-04T02:05:19.291Z,8.59
2024-01-04T02:07:47.299Z,8.54
2024-01-04T02:10:15.322Z,8.48
2024-01-04T02:12:44.020Z,8.52
2024-01-04T02:15:12.173Z,8.58
2024-01-04T02:17:41.355Z,8.61
2024-01-04T02:20:12.632Z,8.58
2024-01-04T02:22:45.575Z,8.67
2024-01-04T02:25:13.521Z,8.78
2024-01-04T02:27:41.481Z,8.76
2024-01-04T02:30:09.844Z,8.88
2024-01-04T02:32:38.108Z,8.97
2024-01-04T02:35:06.684Z,9.07
2024-01-04T02:37:34.670Z,9.10
2024-01-04T02:40:02.812Z,9.04
2024-01-04T02:42:32.470Z,9.11
2024-01-04T02:45:00.769Z,9.12
2024-01-04T02:47:28.821Z,9.26
2024-01-04T02:49:56.697Z,9.22
2024-01-04T02:52:24.657Z,9.18
2024-01-04T02:54:52.569Z,9.24
2024-01-04T02:57:20.569Z,9.23
2024-01-04T03:03:13.709Z,9.32
2024-01-04T03:05:41.996Z,9.31
2024-01-04T03:08:09.887Z,9.31
2024-01-04T03:10:37.805Z,9.35
2024-01-04T03:13:08.178Z,9.28
2024-01-04T03:15:36.156Z,9.23
2024-01-04T03:18:04.450Z,9.19
2024-01-04T03:20:32.423Z,9.20
2024-01-04T03:23:00.498Z,9.30
2024-01-04T03:25:28.460Z,9.27
2024-01-04T03:27:56.336Z,9.32
2024-01-04T03:30:24.424Z,9.31
2024-01-04T03:32:52.712Z,9.37
2024-01-04T03:35:20.745Z,9.32
2024-01-04T03:37:48.669Z,9.15
2024-01-04T03:40:16.840Z,9.22
2024-01-04T03:42:44.813Z,9.27
2024-01-04T03:45:12.768Z,9.29
2024-01-04T03:47:41.369Z,9.34
2024-01-04T03:50:09.571Z,9.19
2024-01-04T03:52:37.532Z,9.24
2024-01-04T03:55:05.868Z,9.10
2024-01-04T03:57:35.733Z,8.88
2024-01-04T04:00:04.776Z,8.85
2024-01-04T04:02:40.085Z,8.49
2024-01-04T04:05:08.430Z,8.42
2024-01-04T04:07:36.458Z,8.42
2024-01-04T04:10:04.759Z,8.46
2024-01-04T04:12:32.770Z,8.43
2024-01-04T04:15:02.466Z,8.36
2024-01-04T04:17:31.771Z,8.20
2024-01-04T04:19:59.918Z,8.04
2024-01-04T04:22:27.841Z,8.05
2024-01-04T04:24:55.815Z,8.12
2024-01-04T04:27:23.730Z,8.25
2024-01-04T04:29:51.708Z,8.31
2024-01-04T04:32:19.910Z,8.21
2024-01-04T04:34:48.089Z,8.22
2024-01-04T04:37:16.286Z,8.29
2024-01-04T04:39:46.349Z,8.28
2024-01-04T04:42:14.501Z,8.20
2024-01-04T04:44:42.652Z,8.34
2024-01-04T04:47:10.744Z,8.20
2024-01-04T04:49:38.680Z,8.31
2024-01-04T04:52:06.886Z,8.36
2024-01-04T04:54:37.822Z,8.47
2024-01-04T04:57:06.662Z,8.47
2024-01-04T04:59:34.858Z,8.61
2024-01-04T05:02:02.996Z,8.68
2024-01-04T05:04:30.902Z,8.71
2024-01-04T05:06:58.976Z,8.97
2024-01-04T05:09:27.072Z,8.98
2024-01-04T05:11:55.311Z,8.94
2024-01-04T05:14:23.278Z,8.90
2024-01-04T05:16:51.600Z,8.94
2024-01-04T05:19:19.846Z,8.95
2024-01-04T05:21:47.883Z,8.98
2024-01-04T05:24:15.825Z,9.02
2024-01-04T05:26:43.903Z,8.96
2024-01-04T05:29:11.766Z,9.04
2024-01-04T05:31:39.709Z,8.92
2024-01-04T05:34:07.888Z,8.84
2024-01-04T05:36:36.116Z,8.92
2024-01-04T05:39:04.818Z,8.86
2024-01-04T05:41:33.193Z,8.89
2024-01-04T05:44:01.222Z,8.92
2024-01-04T05:46:29.280Z,8.46
2024-01-04T05:48:57.408Z,8.71
2024-01-04T05:51:25.552Z,8.83
2024-01-04T05:54:10.270Z,8.77
2024-01-04T05:56:38.944Z,8.62
2024-01-04T05:59:07.001Z,8.39
2024-01-04T06:01:35.374Z,8.31
2024-01-04T06:04:03.449Z,8.47
2024-01-04T06:06:31.608Z,8.51
2024-01-04T06:08:59.665Z,8.57
2024-01-04T06:11:27.728Z,8.48
2024-01-04T06:13:56.129Z,8.02
2024-01-04T06:16:24.206Z,8.03
2024-01-04T06:18:53.078Z,7.91
2024-01-04T06:21:21.295Z,7.94
2024-01-04T06:23:49.250Z,8.01
2024-01-04T06:26:20.709Z,7.62
2024-01-04T06:28:51.233Z,7.72
2024-01-04T06:31:19.300Z,7.85
2024-01-04T06:33:47.556Z,7.81
2024-01-04T06:36:15.683Z,7.86
2024-01-04T06:38:43.581Z,8.03
2024-01-04T06:41:13.432Z,8.13
2024-01-04T06:43:41.507Z,7.76
2024-01-04T06:46:12.014Z,7.98
2024-01-04T06:48:41.778Z,8.12
2024-01-04T06:51:10.049Z,8.24
2024-01-04T06:53:38.279Z,8.33
2024-01-04T06:56:07.343Z,8.15
2024-01-04T06:58:35.262Z,8.34
2024-01-04T07:01:03.154Z,8.42
2024-01-04T07:03:31.859Z,8.43
2024-01-04T07:06:00.018Z,8.28
2024-01-04T07:08:28.069Z,8.45
2024-01-04T07:10:55.915Z,8.49
2024-01-04T07:13:23.897Z,8.81
2024-01-04T07:15:51.822Z,9.01
2024-01-04T07:18:19.940Z,8.91
2024-01-04T07:20:48.230Z,9.12
2024-01-04T07:23:16.720Z,9.44
2024-01-04T07:25:45.281Z,9.64
2024-01-04T07:28:13.184Z,9.81
2024-01-04T07:30:41.689Z,9.67
2024-01-04T07:33:10.010Z,9.86
2024-01-04T07:35:38.674Z,10.15
2024-01-04T07:38:06.813Z,10.33
2024-01-04T07:40:34.859Z,10.51
2024-01-04T07:43:02.842Z,10.58
2024-01-04T07:45:30.890Z,10.45
2024-01-04T07:47:58.995Z,10.70
2024-01-04T07:50:27.920Z,10.71
2024-01-04T07:52:56.973Z,10.68
2024-01-04T07:55:25.062Z,10.80
2024-01-04T07:57:53.370Z,10.90
2024-01-04T08:00:21.664Z,10.94
2024-01-04T08:02:49.723Z,11.02
2024-01-04T08:05:17.987Z,11.05
2024-01-04T08:07:45.985Z,10.97
2024-01-04T08:10:14.071Z,10.96
2024-01-04T08:12:42.431Z,10.96
2024-01-04T08:15:11.406Z,10.97
2024-01-04T08:17:39.862Z,11.07
2024-01-04T08:20:08.873Z,11.00
2024-01-04T08:22:36.970Z,11.04
2024-01-04T08:25:05.842Z,10.96
2024-01-04T08:27:33.885Z,10.98
2024-01-04T08:30:01.963Z,10.87
2024-01-04T08:32:30.053Z,10.96
2024-01-04T08:34:58.071Z,10.91
2024-01-04T08:37:26.153Z,10.93
2024-01-04T08:39:54.497Z,10.89
2024-01-04T08:42:22.579Z,10.73
2024-01-04T08:44:50.613Z,10.91
2024-01-04T08:47:18.582Z,10.88
2024-01-04T08:49:46.620Z,11.01
2024-01-04T08:52:14.652Z,10.96
2024-01-04T08:54:43.853Z,11.05
2024-01-04T08:57:11.958Z,11.07
2024-01-04T08:59:39.995Z,11.18
2024-01-04T09:02:10.536Z,11.32
2024-01-04T09:04:39.412Z,11.42
2024-01-04T09:07:08.650Z,11.85
2024-01-04T09:09:37.039Z,12.38
2024-01-04T09:12:05.424Z,12.66
2024-01-04T09:14:33.882Z,12.99
2024-01-04T09:17:02.167Z,13.16
2024-01-04T09:19:30.310Z,13.26
2024-01-04T09:21:58.674Z,13.21
2024-01-04T09:24:26.788Z,13.26
2024-01-04T09:26:54.760Z,13.58
2024-01-04T09:29:22.850Z,14.02
2024-01-04T09:31:50.880Z,14.17
2024-01-04T09:34:19.152Z,14.43
2024-01-04T09:36:47.536Z,14.53
2024-01-04T09:39:19.592Z,15.14
2024-01-04T09:41:49.613Z,15.97
2024-01-04T09:44:18.019Z,17.21
2024-01-04T09:46:46.820Z,18.59
2024-01-04T09:49:15.666Z,19.09
2024-01-04T09:51:44.095Z,19.91
2024-01-04T09:54:12.941Z,20.13
2024-01-04T09:56:47.765Z,20.89
2024-01-04T09:59:15.954Z,20.91
2024-01-04T10:01:44.636Z,20.98
2024-01-04T10:04:14.601Z,20.65
2024-01-04T10:06:45.054Z,20.61
2024-01-04T10:09:55.349Z,20.02
2024-01-04T10:12:24.635Z,19.81
2024-01-04T10:14:52.736Z,20.04
2024-01-04T10:17:21.025Z,19.75
2024-01-04T10:19:49.069Z,19.16
2024-01-04T10:22:23.438Z,18.85
2024-01-04T10:24:53.121Z,19.74
2024-01-04T10:27:21.642Z,20.54
2024-01-04T10:29:53.106Z,21.34
2024-01-04T10:32:21.261Z,21.92
2024-01-04T10:34:49.245Z,23.21
2024-01-04T10:37:23.817Z,23.67
2024-01-04T10:39:59.601Z,24.20
2024-01-04T10:42:28.463Z,24.82
2024-01-04T10:44:56.721Z,25.32
2024-01-04T10:47:25.359Z,25.95
2024-01-04T10:49:59.437Z,25.21
2024-01-04T10:52:35.250Z,26.26
2024-01-04T10:55:05.379Z,26.52
2024-01-04T10:57:35.086Z,26.48
2024-01-04T11:00:05.110Z,26.75
2024-01-04T11:02:35.051Z,26.90
2024-01-04T11:05:05.228Z,26.45
2024-01-04T11:07:35.198Z,26.57
2024-01-04T11:10:03.318Z,26.73
2024-01-04T11:12:32.915Z,26.72
2024-01-04T11:15:01.147Z,26.79
2024-01-04T11:17:54.556Z,26.42
2024-01-04T11:20:36.966Z,27.06
2024-01-04T11:23:22.444Z,26.55
2024-01-04T11:26:02.401Z,28.05
2024-01-04T11:28:39.464Z,27.57
2024-01-04T11:31:09.105Z,27.00
2024-01-04T11:33:44.158Z,26.40
2024-01-04T11:36:18.001Z,27.10
2024-01-04T11:38:47.646Z,27.70
2024-01-04T11:41:15.692Z,27.88
2024-01-04T11:43:48.047Z,27.16
2024-01-04T11:46:24.069Z,25.90
2024-01-04T11:49:03.759Z,25.08
2024-01-04T11:51:46.577Z,24.61
2024-01-04T11:54:17.033Z,23.81
2024-01-04T11:56:47.045Z,23.80
2024-01-04T11:59:19.909Z,23.02
2024-01-04T12:01:48.345Z,23.68
2024-01-04T12:04:17.536Z,24.05
2024-01-04T12:06:47.464Z,24.42
2024-01-04T12:09:19.106Z,24.34
2024-01-04T12:11:59.040Z,25.04
2024-01-04T12:14:27.801Z,24.89
2024-01-04T12:16:55.735Z,25.42
2024-01-04T12:19:23.812Z,25.57
2024-01-04T12:21:51.960Z,24.90
2024-01-04T12:24:21.027Z,24.88
2024-01-04T12:26:49.938Z,24.80
2024-01-04T12:29:18.151Z,24.86
2024-01-04T12:31:46.502Z,24.39
2024-01-04T12:34:14.951Z,23.31
2024-01-04T12:36:43.340Z,22.47
2024-01-04T12:39:15.264Z,22.70
2024-01-04T12:41:46.763Z,22.56
2024-01-04T12:44:15.865Z,22.12
2024-01-04T12:46:45.685Z,22.01
2024-01-04T12:49:17.527Z,21.34
2024-01-04T12:51:48.184Z,20.68
2024-01-04T12:54:16.670Z,20.23
2024-01-04T12:56:44.821Z,19.30
2024-01-04T12:59:14.182Z,19.02
2024-01-04T13:01:42.228Z,18.38
2024-01-04T13:04:10.188Z,17.94
2024-01-04T13:06:38.567Z,17.68
2024-01-04T13:09:07.326Z,17.42
2024-01-04T13:11:35.482Z,16.85
2024-01-04T13:14:04.017Z,16.81
2024-01-04T13:16:32.297Z,16.53
2024-01-04T13:19:00.367Z,16.44
2024-01-04T13:21:28.624Z,16.38
2024-01-04T13:23:57.049Z,15.99
2024-01-04T13:26:25.267Z,15.66
2024-01-04T13:28:53.480Z,15.52
2024-01-04T13:31:22.145Z,15.32
2024-01-04T13:33:50.527Z,15.41
2024-01-04T13:36:19.488Z,15.31
2024-01-04T13:38:47.776Z,15.17
2024-01-04T13:41:15.850Z,15.13
2024-01-04T13:43:44.010Z,15.06
2024-01-04T13:46:11.990Z,14.85
2024-01-04T13:48:40.370Z,14.96
2024-01-04T13:51:08.799Z,14.96
2024-01-04T13:53:36.823Z,14.85
2024-01-04T13:56:05.205Z,14.88
2024-01-04T13:58:33.380Z,14.59
2024-01-04T14:01:01.373Z,14.71
2024-01-04T14:03:29.427Z,14.44
2024-01-04T14:05:57.652Z,14.45
2024-01-04T14:08:26.924Z,14.27
2024-01-04T14:10:57.368Z,14.24
2024-01-04T14:13:25.343Z,14.13
2024-01-04T14:15:53.282Z,13.77
2024-01-04T14:22:56.515Z,11.07
2024-01-04T14:25:24.780Z,10.35
2024-01-04T14:27:52.741Z,9.70
2024-01-04T14:30:20.993Z,9.50
2024-01-04T14:32:49.793Z,8.97
2024-01-04T14:35:17.963Z,9.05
2024-01-04T14:37:46.094Z,9.22
2024-01-04T14:40:19.692Z,9.27
2024-01-04T14:42:48.841Z,9.22
2024-01-04T14:45:18.022Z,9.06
2024-01-04T14:47:47.489Z,8.93
2024-01-04T14:50:17.245Z,8.83
2024-01-04T14:52:45.705Z,8.83
2024-01-04T14:55:14.316Z,8.90
2024-01-04T14:57:43.954Z,8.88
2024-01-04T15:00:13.985Z,9.01
2024-01-04T15:02:42.489Z,9.18
2024-01-04T15:05:11.305Z,9.36
2024-01-04T15:07:40.260Z,9.40
2024-01-04T15:10:10.717Z,9.49
2024-01-04T15:12:41.316Z,9.53
2024-01-04T15:15:17.045Z,9.65
2024-01-04T15:17:52.312Z,9.73
2024-01-04T15:20:20.856Z,9.65
2024-01-04T15:22:49.190Z,9.69
2024-01-04T15:25:17.764Z,9.57
2024-01-04T15:27:46.383Z,9.52
2024-01-04T15:44:01.763Z,9.60
2024-01-04T15:46:30.819Z,9.46
2024-01-04T15:48:59.692Z,9.24
2024-01-04T15:51:28.562Z,9.36
2024-01-04T15:54:00.333Z,9.16
2024-01-04T15:56:32.616Z,9.17
2024-01-04T15:59:01.729Z,9.14
2024-01-04T16:01:30.691Z,9.12
2024-01-04T16:04:00.072Z,9.12
2024-01-04T16:06:28.785Z,8.98
2024-01-04T16:08:58.019Z,8.94
2024-01-04T16:11:26.751Z,8.92
2024-01-04T16:13:55.670Z,8.89
2024-01-04T16:16:24.666Z,8.86
2024-01-04T16:18:53.951Z,8.89
2024-01-04T16:21:22.686Z,8.88
2024-01-04T16:23:52.170Z,8.87
2024-01-04T16:26:21.173Z,8.85
2024-01-04T16:28:49.929Z,8.98
2024-01-04T16:31:18.672Z,9.10
2024-01-04T16:33:49.084Z,8.99
2024-01-04T16:36:18.857Z,9.15
2024-01-04T16:38:48.278Z,9.21
2024-01-04T16:41:16.827Z,9.15
2024-01-04T16:43:45.482Z,9.23
2024-01-04T16:46:14.002Z,9.26
2024-01-04T16:48:42.986Z,9.34
2024-01-04T16:51:14.360Z,9.35
2024-01-04T16:53:44.150Z,9.26
2024-01-04T16:56:13.577Z,9.27
2024-01-04T16:58:42.256Z,9.19
2024-01-04T17:01:11.248Z,9.18
2024-01-04T17:04:01.767Z,9.28
2024-01-04T17:06:31.039Z,9.36
2024-01-04T17:09:02.436Z,9.32
2024-01-04T17:11:30.904Z,9.29
2024-01-04T17:13:59.431Z,9.20
2024-01-04T17:16:27.874Z,9.30
2024-01-04T17:18:56.749Z,9.34
2024-01-04T17:21:25.483Z,9.43
2024-01-04T17:23:54.248Z,9.51
2024-01-04T17:26:23.021Z,9.56
2024-01-04T17:28:51.636Z,9.42
2024-01-04T17:31:21.498Z,9.57
2024-01-04T17:33:50.222Z,9.44
2024-01-04T17:36:25.884Z,9.34
2024-01-04T17:39:01.462Z,9.36
2024-01-04T17:41:32.831Z,9.37
2024-01-04T17:44:01.000Z,9.25
2024-01-04T17:46:29.096Z,9.29
2024-01-04T17:48:57.991Z,9.18
2024-01-04T17:51:26.415Z,9.17
2024-01-04T17:53:54.554Z,9.21
2024-01-04T17:56:23.278Z,9.11
2024-01-04T17:58:51.286Z,8.98
2024-01-04T18:01:23.586Z,8.88
2024-01-04T18:03:52.266Z,8.93
2024-01-04T18:06:21.243Z,8.89
2024-01-04T18:08:53.336Z,8.85
2024-01-04T18:11:23.152Z,8.89
2024-01-04T18:13:51.789Z,8.89
2024-01-04T18:16:20.674Z,8.95
2024-01-04T18:18:50.289Z,9.01
2024-01-04T18:21:20.582Z,9.03
2024-01-04T18:23:50.240Z,8.92
2024-01-04T18:26:19.007Z,8.97
2024-01-04T18:28:47.803Z,8.85
2024-01-04T18:31:16.579Z,8.88
2024-01-04T18:33:45.804Z,8.86
2024-01-04T18:36:15.280Z,8.82
2024-01-04T18:38:48.002Z,8.51
2024-01-04T18:41:24.192Z,8.53
2024-01-04T18:43:53.194Z,8.57
2024-01-04T18:46:21.829Z,8.50
2024-01-04T18:48:50.529Z,8.51
2024-01-04T18:51:20.074Z,8.47
2024-01-04T18:53:49.104Z,8.33
2024-01-04T18:56:18.285Z,8.33
2024-01-04T18:58:46.630Z,8.27
2024-01-04T19:01:15.667Z,8.25
2024-01-04T19:03:44.360Z,8.23
2024-01-04T19:06:13.285Z,8.18
2024-01-04T19:08:42.763Z,8.18
2024-01-04T19:11:12.044Z,8.16
2024-01-04T19:13:42.313Z,8.17
2024-01-04T19:16:11.051Z,8.24
2024-01-04T19:18:50.078Z,8.23
2024-01-04T19:21:20.853Z,8.18
2024-01-04T19:23:49.778Z,8.25
2024-01-04T19:26:18.724Z,8.33
2024-01-04T19:28:49.067Z,8.34
2024-01-04T19:31:22.352Z,8.37
2024-01-04T19:33:52.210Z,8.39
2024-01-04T19:36:21.086Z,8.38
2024-01-04T19:38:49.833Z,8.35
2024-01-04T19:41:20.775Z,8.34
2024-01-04T19:43:49.558Z,8.34
2024-01-04T19:46:19.448Z,8.26
2024-01-04T19:48:48.304Z,7.90
2024-01-04T19:51:17.251Z,7.89
2024-01-04T19:53:45.950Z,7.96
2024-01-04T19:56:14.745Z,8.06
2024-01-04T19:58:44.714Z,8.06
2024-01-04T20:01:13.498Z,7.65
2024-01-04T20:03:43.657Z,7.65
2024-01-04T20:06:12.461Z,7.72
2024-01-04T20:08:41.138Z,7.79
2024-01-04T20:11:11.178Z,7.88
2024-01-04T20:13:59.950Z,8.00
2024-01-04T20:16:28.979Z,8.01
2024-01-04T20:18:58.210Z,8.01
2024-01-04T20:21:49.569Z,8.04
2024-01-04T20:24:19.294Z,8.04
2024-01-04T20:26:47.841Z,7.94
2024-01-04T20:29:18.754Z,7.92
2024-01-04T20:31:48.257Z,7.95
2024-01-04T20:34:17.197Z,7.96
2024-01-04T20:36:46.025Z,7.93
2024-01-04T20:39:16.018Z,7.86
2024-01-04T20:41:45.210Z,7.78
2024-01-04T20:44:13.773Z,7.80
2024-01-04T20:46:43.119Z,7.74
2024-01-04T20:49:12.474Z,7.62
2024-01-04T20:51:41.424Z,7.56
2024-01-04T20:54:11.702Z,7.48
2024-01-04T20:56:40.963Z,7.44
2024-01-04T20:59:12.997Z,7.40
2024-01-04T21:01:41.726Z,7.28
2024-01-04T21:04:10.648Z,7.13
2024-01-04T21:06:41.062Z,7.12
2024-01-04T21:09:12.909Z,7.12
2024-01-04T21:11:41.666Z,7.09
2024-01-04T21:14:25.057Z,7.02
2024-01-04T21:16:53.430Z,6.87
2024-01-04T21:19:21.709Z,6.82
2024-01-04T21:21:50.236Z,6.73
2024-01-04T21:24:19.057Z,6.65
2024-01-04T21:26:47.828Z,6.70
2024-01-04T21:29:16.688Z,6.66
2024-01-04T21:31:44.923Z,6.63
2024-01-04T21:34:14.067Z,6.66
2024-01-04T21:36:43.131Z,6.64
2024-01-04T21:39:13.060Z,6.61
2024-01-04T21:41:45.015Z,6.58
2024-01-04T21:44:13.898Z,6.52
2024-01-04T21:46:43.059Z,6.51
2024-01-04T21:49:11.690Z,6.41
2024-01-04T21:51:40.123Z,6.30
2024-01-04T21:54:08.703Z,6.28
2024-01-04T21:56:37.378Z,6.19
2024-01-04T21:59:26.228Z,6.06
2024-01-04T22:01:58.089Z,5.89
2024-01-04T22:04:26.776Z,5.86
2024-01-04T22:06:55.321Z,5.72
2024-01-04T22:09:23.538Z,5.68
2024-01-04T22:11:51.601Z,5.64
2024-01-04T22:14:19.573Z,5.64
2024-01-04T22:16:47.498Z,5.59
2024-01-04T22:19:15.932Z,5.50
2024-01-04T22:21:44.020Z,5.29
2024-01-04T22:24:11.943Z,5.33
2024-01-04T22:26:41.001Z,5.36
2024-01-04T22:29:11.910Z,5.31
2024-01-04T22:31:39.846Z,5.17
2024-01-04T22:34:08.462Z,5.21
2024-01-04T22:36:38.989Z,5.22
2024-01-04T22:39:07.014Z,4.95
2024-01-04T22:41:35.121Z,5.01
2024-01-04T22:44:03.020Z,5.09
2024-01-04T22:46:31.111Z,5.01
2024-01-04T22:48:59.067Z,5.09
2024-01-04T22:51:30.474Z,4.97
2024-01-04T22:53:58.709Z,5.00
2024-01-04T22:56:26.646Z,5.08
2024-01-04T22:58:54.624Z,5.03
2024-01-04T23:01:22.805Z,5.03
2024-01-04T23:03:51.330Z,4.88
2024-01-04T23:06:19.370Z,4.63
2024-01-04T23:08:47.978Z,4.74
2024-01-04T23:11:15.928Z,4.83
2024-01-04T23:13:43.828Z,4.60
2024-01-04T23:16:14.914Z,4.74
2024-01-04T23:18:43.123Z,4.72
2024-01-04T23:21:11.265Z,4.79
2024-01-04T23:23:39.277Z,4.22
2024-01-04T23:26:07.254Z,4.36
2024-01-04T23:28:35.645Z,4.54
2024-01-04T23:31:03.664Z,4.58
2024-01-04T23:33:37.306Z,4.41
2024-01-04T23:36:10.950Z,4.37
2024-01-04T23:38:39.029Z,4.40
2024-01-04T23:41:07.214Z,4.19
2024-01-04T23:43:35.212Z,4.13
2024-01-04T23:46:03.181Z,4.24
2024-01-04T23:48:31.382Z,4.11
2024-01-04T23:50:59.845Z,4.10
2024-01-04T23:53:27.898Z,4.25
2024-01-04T23:55:55.946Z,3.73
2024-01-04T23:58:23.785Z,3.76
